BDU weather

Bardufoss Airport
MÃ¥lselv, Troms, Norway

Public forecast

Using degrees Celsius for public forecast. Weather courtesy of forecast.io.

Current aviation weather report (METAR) for Bardufoss Airport

Retrieved 2020/02/18 09:20 UTC (0 seconds ago):

ENDU 180920Z 00000KT 9999 FEW008 SCT025 BKN035 M02/M03 Q0975 NOSIG RMK WIND 1100FT 31005KT WIND 2200FT 01011KT

Aviation forecast (TAF) for Bardufoss Airport

Retrieved 2020/02/18 06:57 UTC (2 hours ago):

TAF ENDU 180500Z 1806/1906 32005KT 9999 FEW010 BKN020 PROB40 TEMPO 1806/1818 2000 SHSN VV010 TEMPO 1818/1906 4000 -SHSN VV014